sensor_id;sensor_type;location;lat;lon;timestamp;P1;durP1;ratioP1;P2;durP2;ratioP2
77160;SDS011;66135;0.000;0.000;2023-04-24T00:00:30;0.47;;;0.10;;
77160;SDS011;66135;0.000;0.000;2023-04-24T00:02:56;0.22;;;0.10;;
77160;SDS011;66135;0.000;0.000;2023-04-24T00:07:48;0.30;;;0.00;;
77160;SDS011;66135;0.000;0.000;2023-04-24T00:10:14;0.20;;;0.00;;
77160;SDS011;66135;0.000;0.000;2023-04-24T00:12:39;0.98;;;0.10;;
77160;SDS011;66135;0.000;0.000;2023-04-24T00:15:05;0.40;;;0.20;;
77160;SDS011;66135;0.000;0.000;2023-04-24T00:17:33;0.43;;;0.10;;
77160;SDS011;66135;0.000;0.000;2023-04-24T00:19:59;0.30;;;0.03;;
77160;SDS011;66135;0.000;0.000;2023-04-24T00:22:27;0.52;;;0.10;;
77160;SDS011;66135;0.000;0.000;2023-04-24T00:24:53;1.65;;;0.35;;
77160;SDS011;66135;0.000;0.000;2023-04-24T00:29:45;0.35;;;0.03;;
77160;SDS011;66135;0.000;0.000;2023-04-24T00:32:10;0.60;;;0.57;;
77160;SDS011;66135;0.000;0.000;2023-04-24T00:34:36;0.57;;;0.10;;
77160;SDS011;66135;0.000;0.000;2023-04-24T00:37:01;0.35;;;0.05;;
77160;SDS011;66135;0.000;0.000;2023-04-24T00:39:27;0.55;;;0.10;;
77160;SDS011;66135;0.000;0.000;2023-04-24T00:41:52;0.70;;;0.17;;
77160;SDS011;66135;0.000;0.000;2023-04-24T00:44:18;0.43;;;0.00;;
77160;SDS011;66135;0.000;0.000;2023-04-24T00:46:44;0.43;;;0.10;;
77160;SDS011;66135;0.000;0.000;2023-04-24T00:49:10;0.50;;;0.10;;
77160;SDS011;66135;0.000;0.000;2023-04-24T00:51:37;0.55;;;0.17;;
77160;SDS011;66135;0.000;0.000;2023-04-24T00:54:02;0.55;;;0.10;;
77160;SDS011;66135;0.000;0.000;2023-04-24T00:56:28;1.00;;;0.10;;
77160;SDS011;66135;0.000;0.000;2023-04-24T00:58:54;0.98;;;0.50;;
77160;SDS011;66135;0.000;0.000;2023-04-24T01:01:20;0.57;;;0.20;;
77160;SDS011;66135;0.000;0.000;2023-04-24T01:03:46;0.30;;;0.20;;
77160;SDS011;66135;0.000;0.000;2023-04-24T01:06:12;1.65;;;0.10;;
77160;SDS011;66135;0.000;0.000;2023-04-24T01:08:38;1.10;;;0.10;;
77160;SDS011;66135;0.000;0.000;2023-04-24T01:11:04;0.32;;;0.10;;
77160;SDS011;66135;0.000;0.000;2023-04-24T01:13:31;0.65;;;0.10;;
77160;SDS011;66135;0.000;0.000;2023-04-24T01:15:57;0.90;;;0.90;;
77160;SDS011;66135;0.000;0.000;2023-04-24T01:18:26;0.50;;;0.15;;
77160;SDS011;66135;0.000;0.000;2023-04-24T01:20:59;0.40;;;0.20;;
77160;SDS011;66135;0.000;0.000;2023-04-24T01:23:29;0.30;;;0.03;;
77160;SDS011;66135;0.000;0.000;2023-04-24T01:25:55;0.60;;;0.10;;
77160;SDS011;66135;0.000;0.000;2023-04-24T01:28:21;0.20;;;0.10;;
77160;SDS011;66135;0.000;0.000;2023-04-24T01:30:46;0.55;;;0.15;;
77160;SDS011;66135;0.000;0.000;2023-04-24T01:33:12;2.05;;;0.20;;
77160;SDS011;66135;0.000;0.000;2023-04-24T01:35:38;0.40;;;0.25;;
77160;SDS011;66135;0.000;0.000;2023-04-24T01:38:03;0.95;;;0.10;;
77160;SDS011;66135;0.000;0.000;2023-04-24T01:40:30;1.15;;;1.05;;
77160;SDS011;66135;0.000;0.000;2023-04-24T01:42:56;1.27;;;0.20;;
77160;SDS011;66135;0.000;0.000;2023-04-24T01:45:22;0.85;;;0.47;;
77160;SDS011;66135;0.000;0.000;2023-04-24T01:47:48;0.60;;;0.10;;
77160;SDS011;66135;0.000;0.000;2023-04-24T01:50:14;1.05;;;0.13;;
77160;SDS011;66135;0.000;0.000;2023-04-24T01:52:40;0.50;;;0.10;;
77160;SDS011;66135;0.000;0.000;2023-04-24T01:55:06;0.50;;;0.20;;
77160;SDS011;66135;0.000;0.000;2023-04-24T01:57:32;0.40;;;0.10;;
77160;SDS011;66135;0.000;0.000;2023-04-24T01:59:58;0.75;;;0.20;;
77160;SDS011;66135;0.000;0.000;2023-04-24T02:02:24;0.68;;;0.38;;
77160;SDS011;66135;0.000;0.000;2023-04-24T02:04:52;0.55;;;0.10;;
77160;SDS011;66135;0.000;0.000;2023-04-24T02:07:20;0.68;;;0.20;;
77160;SDS011;66135;0.000;0.000;2023-04-24T02:09:46;1.23;;;0.30;;
77160;SDS011;66135;0.000;0.000;2023-04-24T02:12:11;1.13;;;0.28;;
77160;SDS011;66135;0.000;0.000;2023-04-24T02:14:37;0.40;;;0.15;;
77160;SDS011;66135;0.000;0.000;2023-04-24T02:17:03;0.68;;;0.20;;
77160;SDS011;66135;0.000;0.000;2023-04-24T02:19:29;1.25;;;0.75;;
77160;SDS011;66135;0.000;0.000;2023-04-24T02:21:55;0.77;;;0.45;;
77160;SDS011;66135;0.000;0.000;2023-04-24T02:24:20;0.60;;;0.32;;
77160;SDS011;66135;0.000;0.000;2023-04-24T02:26:46;1.73;;;0.30;;
77160;SDS011;66135;0.000;0.000;2023-04-24T02:29:11;1.50;;;0.20;;
77160;SDS011;66135;0.000;0.000;2023-04-24T02:31:37;0.60;;;0.25;;
77160;SDS011;66135;0.000;0.000;2023-04-24T02:34:02;0.52;;;0.32;;
77160;SDS011;66135;0.000;0.000;2023-04-24T02:36:27;1.02;;;0.20;;
77160;SDS011;66135;0.000;0.000;2023-04-24T02:38:53;0.95;;;0.10;;
77160;SDS011;66135;0.000;0.000;2023-04-24T02:41:18;0.85;;;0.25;;
77160;SDS011;66135;0.000;0.000;2023-04-24T02:43:44;1.40;;;0.60;;
77160;SDS011;66135;0.000;0.000;2023-04-24T02:46:10;1.50;;;0.20;;
77160;SDS011;66135;0.000;0.000;2023-04-24T02:48:35;0.60;;;0.20;;
77160;SDS011;66135;0.000;0.000;2023-04-24T02:51:01;0.47;;;0.20;;
77160;SDS011;66135;0.000;0.000;2023-04-24T02:53:26;1.02;;;0.47;;
77160;SDS011;66135;0.000;0.000;2023-04-24T02:55:52;1.10;;;0.30;;
77160;SDS011;66135;0.000;0.000;2023-04-24T02:58:17;1.20;;;0.55;;
77160;SDS011;66135;0.000;0.000;2023-04-24T03:00:44;1.63;;;0.20;;
77160;SDS011;66135;0.000;0.000;2023-04-24T03:03:10;1.30;;;0.38;;
77160;SDS011;66135;0.000;0.000;2023-04-24T03:05:36;0.50;;;0.43;;
77160;SDS011;66135;0.000;0.000;2023-04-24T03:08:01;1.58;;;0.20;;
77160;SDS011;66135;0.000;0.000;2023-04-24T03:10:27;0.75;;;0.30;;
77160;SDS011;66135;0.000;0.000;2023-04-24T03:12:52;0.47;;;0.32;;
77160;SDS011;66135;0.000;0.000;2023-04-24T03:15:18;0.65;;;0.20;;
77160;SDS011;66135;0.000;0.000;2023-04-24T03:17:43;0.70;;;0.20;;
77160;SDS011;66135;0.000;0.000;2023-04-24T03:20:08;1.02;;;0.20;;
77160;SDS011;66135;0.000;0.000;2023-04-24T03:22:34;0.75;;;0.30;;
77160;SDS011;66135;0.000;0.000;2023-04-24T03:25:00;0.73;;;0.32;;
77160;SDS011;66135;0.000;0.000;2023-04-24T03:27:26;0.45;;;0.28;;
77160;SDS011;66135;0.000;0.000;2023-04-24T03:29:52;0.88;;;0.38;;
77160;SDS011;66135;0.000;0.000;2023-04-24T03:32:20;1.20;;;0.40;;
77160;SDS011;66135;0.000;0.000;2023-04-24T03:34:47;1.20;;;0.30;;
77160;SDS011;66135;0.000;0.000;2023-04-24T03:37:13;0.50;;;0.32;;
77160;SDS011;66135;0.000;0.000;2023-04-24T03:39:39;0.45;;;0.25;;
77160;SDS011;66135;0.000;0.000;2023-04-24T03:42:04;0.63;;;0.20;;
77160;SDS011;66135;0.000;0.000;2023-04-24T03:44:30;0.50;;;0.13;;
77160;SDS011;66135;0.000;0.000;2023-04-24T03:46:55;0.82;;;0.40;;
77160;SDS011;66135;0.000;0.000;2023-04-24T03:49:22;1.10;;;0.32;;
77160;SDS011;66135;0.000;0.000;2023-04-24T03:51:48;1.02;;;0.40;;
77160;SDS011;66135;0.000;0.000;2023-04-24T03:54:13;0.95;;;0.50;;
77160;SDS011;66135;0.000;0.000;2023-04-24T03:56:39;0.90;;;0.30;;
77160;SDS011;66135;0.000;0.000;2023-04-24T03:59:04;0.40;;;0.20;;
77160;SDS011;66135;0.000;0.000;2023-04-24T04:01:29;0.68;;;0.43;;
77160;SDS011;66135;0.000;0.000;2023-04-24T04:03:55;1.92;;;0.40;;
77160;SDS011;66135;0.000;0.000;2023-04-24T04:06:21;1.00;;;0.43;;
77160;SDS011;66135;0.000;0.000;2023-04-24T04:08:47;0.85;;;0.55;;
77160;SDS011;66135;0.000;0.000;2023-04-24T04:11:12;0.93;;;0.20;;
77160;SDS011;66135;0.000;0.000;2023-04-24T04:13:38;1.35;;;0.40;;
77160;SDS011;66135;0.000;0.000;2023-04-24T04:16:03;1.40;;;0.35;;
77160;SDS011;66135;0.000;0.000;2023-04-24T04:18:29;1.33;;;0.50;;
77160;SDS011;66135;0.000;0.000;2023-04-24T04:20:55;0.80;;;0.40;;
77160;SDS011;66135;0.000;0.000;2023-04-24T04:23:21;0.73;;;0.20;;
77160;SDS011;66135;0.000;0.000;2023-04-24T04:25:47;0.70;;;0.20;;
77160;SDS011;66135;0.000;0.000;2023-04-24T04:28:13;0.65;;;0.43;;
77160;SDS011;66135;0.000;0.000;2023-04-24T04:30:38;1.35;;;0.35;;
77160;SDS011;66135;0.000;0.000;2023-04-24T04:33:03;2.15;;;0.60;;
77160;SDS011;66135;0.000;0.000;2023-04-24T04:35:29;1.00;;;0.70;;
77160;SDS011;66135;0.000;0.000;2023-04-24T04:37:54;1.15;;;0.90;;
77160;SDS011;66135;0.000;0.000;2023-04-24T04:40:23;1.80;;;0.60;;
77160;SDS011;66135;0.000;0.000;2023-04-24T04:42:57;1.15;;;0.57;;
77160;SDS011;66135;0.000;0.000;2023-04-24T04:45:23;2.25;;;0.70;;
77160;SDS011;66135;0.000;0.000;2023-04-24T04:47:49;1.17;;;0.55;;
77160;SDS011;66135;0.000;0.000;2023-04-24T04:50:14;0.70;;;0.52;;
77160;SDS011;66135;0.000;0.000;2023-04-24T04:52:41;2.72;;;0.45;;
77160;SDS011;66135;0.000;0.000;2023-04-24T04:55:07;0.80;;;0.50;;
77160;SDS011;66135;0.000;0.000;2023-04-24T04:57:32;1.20;;;0.70;;
77160;SDS011;66135;0.000;0.000;2023-04-24T04:59:58;1.35;;;0.52;;
77160;SDS011;66135;0.000;0.000;2023-04-24T05:02:23;1.80;;;0.65;;
77160;SDS011;66135;0.000;0.000;2023-04-24T05:04:48;0.95;;;0.60;;
77160;SDS011;66135;0.000;0.000;2023-04-24T05:07:14;1.00;;;0.52;;
77160;SDS011;66135;0.000;0.000;2023-04-24T05:09:39;1.40;;;0.50;;
77160;SDS011;66135;0.000;0.000;2023-04-24T05:12:05;1.10;;;0.52;;
77160;SDS011;66135;0.000;0.000;2023-04-24T05:14:30;2.40;;;0.38;;
77160;SDS011;66135;0.000;0.000;2023-04-24T05:17:00;1.58;;;0.45;;
77160;SDS011;66135;0.000;0.000;2023-04-24T05:19:26;2.58;;;0.63;;
77160;SDS011;66135;0.000;0.000;2023-04-24T05:21:51;1.92;;;0.70;;
77160;SDS011;66135;0.000;0.000;2023-04-24T05:24:16;2.05;;;0.93;;
77160;SDS011;66135;0.000;0.000;2023-04-24T05:26:42;1.13;;;0.50;;
77160;SDS011;66135;0.000;0.000;2023-04-24T05:29:07;1.55;;;0.38;;
77160;SDS011;66135;0.000;0.000;2023-04-24T05:31:33;3.08;;;0.60;;
77160;SDS011;66135;0.000;0.000;2023-04-24T05:33:58;1.05;;;0.40;;
77160;SDS011;66135;0.000;0.000;2023-04-24T05:36:24;0.65;;;0.40;;
77160;SDS011;66135;0.000;0.000;2023-04-24T05:38:49;1.75;;;0.50;;
77160;SDS011;66135;0.000;0.000;2023-04-24T05:41:15;4.70;;;0.80;;
77160;SDS011;66135;0.000;0.000;2023-04-24T05:43:40;2.83;;;1.02;;
77160;SDS011;66135;0.000;0.000;2023-04-24T05:46:06;1.67;;;0.60;;
77160;SDS011;66135;0.000;0.000;2023-04-24T05:48:31;1.23;;;0.45;;
77160;SDS011;66135;0.000;0.000;2023-04-24T05:50:56;1.17;;;0.63;;
77160;SDS011;66135;0.000;0.000;2023-04-24T05:53:22;0.80;;;0.55;;
77160;SDS011;66135;0.000;0.000;2023-04-24T05:55:47;0.70;;;0.30;;
77160;SDS011;66135;0.000;0.000;2023-04-24T05:58:12;0.82;;;0.43;;
77160;SDS011;66135;0.000;0.000;2023-04-24T06:00:38;2.22;;;0.90;;
77160;SDS011;66135;0.000;0.000;2023-04-24T06:03:07;0.85;;;0.32;;
77160;SDS011;66135;0.000;0.000;2023-04-24T06:05:33;1.02;;;0.40;;
77160;SDS011;66135;0.000;0.000;2023-04-24T06:07:58;4.35;;;0.65;;
77160;SDS011;66135;0.000;0.000;2023-04-24T06:10:24;4.22;;;0.93;;
77160;SDS011;66135;0.000;0.000;2023-04-24T06:12:49;2.65;;;0.85;;
77160;SDS011;66135;0.000;0.000;2023-04-24T06:15:15;1.85;;;0.57;;
77160;SDS011;66135;0.000;0.000;2023-04-24T06:17:40;1.58;;;0.60;;
77160;SDS011;66135;0.000;0.000;2023-04-24T06:20:06;1.20;;;0.45;;
77160;SDS011;66135;0.000;0.000;2023-04-24T06:22:32;1.55;;;1.45;;
77160;SDS011;66135;0.000;0.000;2023-04-24T06:24:59;2.67;;;0.40;;
77160;SDS011;66135;0.000;0.000;2023-04-24T06:27:24;0.93;;;0.38;;
77160;SDS011;66135;0.000;0.000;2023-04-24T06:29:50;1.50;;;0.63;;
77160;SDS011;66135;0.000;0.000;2023-04-24T06:32:19;0.80;;;0.40;;
77160;SDS011;66135;0.000;0.000;2023-04-24T06:34:48;1.70;;;0.50;;
77160;SDS011;66135;0.000;0.000;2023-04-24T06:37:14;1.90;;;0.50;;
77160;SDS011;66135;0.000;0.000;2023-04-24T06:39:41;2.15;;;0.75;;
77160;SDS011;66135;0.000;0.000;2023-04-24T06:42:06;1.45;;;0.55;;
77160;SDS011;66135;0.000;0.000;2023-04-24T06:44:34;2.10;;;0.50;;
77160;SDS011;66135;0.000;0.000;2023-04-24T06:47:09;1.33;;;0.30;;
77160;SDS011;66135;0.000;0.000;2023-04-24T06:52:01;1.20;;;0.70;;
77160;SDS011;66135;0.000;0.000;2023-04-24T06:54:27;1.83;;;1.50;;
77160;SDS011;66135;0.000;0.000;2023-04-24T06:56:52;0.73;;;0.40;;
77160;SDS011;66135;0.000;0.000;2023-04-24T06:59:17;1.95;;;0.35;;
77160;SDS011;66135;0.000;0.000;2023-04-24T07:01:43;1.80;;;0.25;;
77160;SDS011;66135;0.000;0.000;2023-04-24T07:04:08;1.45;;;0.40;;
77160;SDS011;66135;0.000;0.000;2023-04-24T07:06:34;2.40;;;1.70;;
77160;SDS011;66135;0.000;0.000;2023-04-24T07:09:01;2.67;;;0.75;;
77160;SDS011;66135;0.000;0.000;2023-04-24T07:11:26;0.93;;;0.65;;
77160;SDS011;66135;0.000;0.000;2023-04-24T07:13:54;2.05;;;0.40;;
77160;SDS011;66135;0.000;0.000;2023-04-24T07:18:45;0.90;;;0.30;;
77160;SDS011;66135;0.000;0.000;2023-04-24T07:21:11;2.05;;;0.30;;
77160;SDS011;66135;0.000;0.000;2023-04-24T07:23:36;2.30;;;0.60;;
77160;SDS011;66135;0.000;0.000;2023-04-24T07:26:02;1.33;;;0.70;;
77160;SDS011;66135;0.000;0.000;2023-04-24T07:28:27;1.17;;;0.68;;
77160;SDS011;66135;0.000;0.000;2023-04-24T07:30:56;4.88;;;0.98;;
77160;SDS011;66135;0.000;0.000;2023-04-24T07:33:25;0.82;;;0.47;;
77160;SDS011;66135;0.000;0.000;2023-04-24T07:35:51;1.45;;;0.60;;
77160;SDS011;66135;0.000;0.000;2023-04-24T07:38:17;2.95;;;0.55;;
77160;SDS011;66135;0.000;0.000;2023-04-24T07:40:53;1.95;;;0.50;;
77160;SDS011;66135;0.000;0.000;2023-04-24T07:43:19;1.45;;;0.60;;
77160;SDS011;66135;0.000;0.000;2023-04-24T07:45:45;2.10;;;0.52;;
77160;SDS011;66135;0.000;0.000;2023-04-24T07:48:10;0.80;;;0.63;;
77160;SDS011;66135;0.000;0.000;2023-04-24T07:50:36;0.80;;;0.73;;
77160;SDS011;66135;0.000;0.000;2023-04-24T07:53:01;3.60;;;0.50;;
77160;SDS011;66135;0.000;0.000;2023-04-24T07:55:27;0.65;;;0.60;;
77160;SDS011;66135;0.000;0.000;2023-04-24T07:57:52;1.25;;;0.63;;
77160;SDS011;66135;0.000;0.000;2023-04-24T08:00:18;1.55;;;1.08;;
77160;SDS011;66135;0.000;0.000;2023-04-24T08:02:43;1.80;;;0.95;;
77160;SDS011;66135;0.000;0.000;2023-04-24T08:05:09;2.05;;;1.05;;
77160;SDS011;66135;0.000;0.000;2023-04-24T08:07:34;2.42;;;1.67;;
77160;SDS011;66135;0.000;0.000;2023-04-24T08:10:00;2.38;;;1.20;;
77160;SDS011;66135;0.000;0.000;2023-04-24T08:12:27;2.35;;;1.00;;
77160;SDS011;66135;0.000;0.000;2023-04-24T08:14:53;3.33;;;1.25;;
77160;SDS011;66135;0.000;0.000;2023-04-24T08:17:18;2.50;;;0.93;;
77160;SDS011;66135;0.000;0.000;2023-04-24T08:19:44;1.85;;;1.02;;
77160;SDS011;66135;0.000;0.000;2023-04-24T08:22:20;1.27;;;0.77;;
77160;SDS011;66135;0.000;0.000;2023-04-24T08:24:46;2.08;;;0.75;;
77160;SDS011;66135;0.000;0.000;2023-04-24T08:27:11;1.40;;;1.00;;
77160;SDS011;66135;0.000;0.000;2023-04-24T08:29:36;2.08;;;0.80;;
77160;SDS011;66135;0.000;0.000;2023-04-24T08:32:02;3.25;;;1.38;;
77160;SDS011;66135;0.000;0.000;2023-04-24T08:34:28;2.72;;;1.33;;
77160;SDS011;66135;0.000;0.000;2023-04-24T08:36:53;1.70;;;0.77;;
77160;SDS011;66135;0.000;0.000;2023-04-24T08:39:19;1.83;;;0.98;;
77160;SDS011;66135;0.000;0.000;2023-04-24T08:41:45;3.05;;;0.95;;
77160;SDS011;66135;0.000;0.000;2023-04-24T08:44:11;4.93;;;1.23;;
77160;SDS011;66135;0.000;0.000;2023-04-24T08:46:38;2.38;;;0.88;;
77160;SDS011;66135;0.000;0.000;2023-04-24T08:49:05;2.42;;;0.85;;
77160;SDS011;66135;0.000;0.000;2023-04-24T08:51:30;3.72;;;1.08;;
77160;SDS011;66135;0.000;0.000;2023-04-24T08:53:56;3.50;;;0.80;;
77160;SDS011;66135;0.000;0.000;2023-04-24T08:56:23;6.63;;;0.95;;
77160;SDS011;66135;0.000;0.000;2023-04-24T08:58:53;3.03;;;0.85;;
77160;SDS011;66135;0.000;0.000;2023-04-24T09:01:19;4.07;;;0.88;;
77160;SDS011;66135;0.000;0.000;2023-04-24T09:03:45;5.03;;;1.05;;
77160;SDS011;66135;0.000;0.000;2023-04-24T09:06:21;3.78;;;1.23;;
77160;SDS011;66135;0.000;0.000;2023-04-24T09:08:46;7.00;;;1.42;;
77160;SDS011;66135;0.000;0.000;2023-04-24T09:11:15;2.88;;;1.08;;
77160;SDS011;66135;0.000;0.000;2023-04-24T09:13:40;2.80;;;2.30;;
77160;SDS011;66135;0.000;0.000;2023-04-24T09:16:06;3.08;;;1.70;;
77160;SDS011;66135;0.000;0.000;2023-04-24T09:18:32;4.95;;;1.75;;
77160;SDS011;66135;0.000;0.000;2023-04-24T09:21:06;4.53;;;1.33;;
77160;SDS011;66135;0.000;0.000;2023-04-24T09:23:33;4.45;;;1.42;;
77160;SDS011;66135;0.000;0.000;2023-04-24T09:26:00;5.07;;;1.58;;
77160;SDS011;66135;0.000;0.000;2023-04-24T09:28:30;2.33;;;1.10;;
77160;SDS011;66135;0.000;0.000;2023-04-24T09:31:06;1.38;;;0.90;;
77160;SDS011;66135;0.000;0.000;2023-04-24T09:33:36;3.00;;;1.42;;
77160;SDS011;66135;0.000;0.000;2023-04-24T09:36:02;4.05;;;2.05;;
77160;SDS011;66135;0.000;0.000;2023-04-24T09:38:35;2.85;;;1.17;;
77160;SDS011;66135;0.000;0.000;2023-04-24T09:41:05;6.47;;;1.10;;
77160;SDS011;66135;0.000;0.000;2023-04-24T09:43:32;2.75;;;0.90;;
77160;SDS011;66135;0.000;0.000;2023-04-24T09:45:58;3.17;;;1.20;;
77160;SDS011;66135;0.000;0.000;2023-04-24T09:48:34;1.42;;;0.77;;
77160;SDS011;66135;0.000;0.000;2023-04-24T09:51:03;4.80;;;1.10;;
77160;SDS011;66135;0.000;0.000;2023-04-24T09:53:39;2.63;;;0.93;;
77160;SDS011;66135;0.000;0.000;2023-04-24T09:56:09;4.38;;;1.05;;
77160;SDS011;66135;0.000;0.000;2023-04-24T09:58:35;2.88;;;0.85;;
77160;SDS011;66135;0.000;0.000;2023-04-24T10:01:01;2.35;;;0.90;;
77160;SDS011;66135;0.000;0.000;2023-04-24T10:03:29;3.05;;;1.27;;
77160;SDS011;66135;0.000;0.000;2023-04-24T10:06:05;3.65;;;1.10;;
77160;SDS011;66135;0.000;0.000;2023-04-24T10:08:36;3.08;;;0.98;;
77160;SDS011;66135;0.000;0.000;2023-04-24T10:13:28;4.00;;;1.65;;
77160;SDS011;66135;0.000;0.000;2023-04-24T10:15:53;3.67;;;1.20;;
77160;SDS011;66135;0.000;0.000;2023-04-24T10:18:20;2.10;;;0.93;;
77160;SDS011;66135;0.000;0.000;2023-04-24T10:20:46;2.30;;;0.85;;
77160;SDS011;66135;0.000;0.000;2023-04-24T10:23:12;3.65;;;0.88;;
77160;SDS011;66135;0.000;0.000;2023-04-24T10:25:38;5.90;;;1.38;;
77160;SDS011;66135;0.000;0.000;2023-04-24T10:28:03;2.08;;;0.85;;
77160;SDS011;66135;0.000;0.000;2023-04-24T10:30:30;1.63;;;0.82;;
77160;SDS011;66135;0.000;0.000;2023-04-24T10:33:03;1.70;;;0.95;;
77160;SDS011;66135;0.000;0.000;2023-04-24T10:35:37;4.25;;;0.80;;
77160;SDS011;66135;0.000;0.000;2023-04-24T10:38:11;3.78;;;1.20;;
77160;SDS011;66135;0.000;0.000;2023-04-24T10:40:38;2.83;;;0.93;;
77160;SDS011;66135;0.000;0.000;2023-04-24T10:43:04;1.55;;;0.80;;
77160;SDS011;66135;0.000;0.000;2023-04-24T10:45:32;3.50;;;0.75;;
77160;SDS011;66135;0.000;0.000;2023-04-24T10:48:02;3.47;;;0.75;;
77160;SDS011;66135;0.000;0.000;2023-04-24T10:50:30;3.17;;;1.02;;
77160;SDS011;66135;0.000;0.000;2023-04-24T10:53:07;2.65;;;1.25;;
77160;SDS011;66135;0.000;0.000;2023-04-24T10:55:44;2.70;;;0.88;;
77160;SDS011;66135;0.000;0.000;2023-04-24T10:58:16;1.98;;;0.77;;
77160;SDS011;66135;0.000;0.000;2023-04-24T11:01:03;1.75;;;0.93;;
77160;SDS011;66135;0.000;0.000;2023-04-24T11:03:29;2.58;;;0.82;;
77160;SDS011;66135;0.000;0.000;2023-04-24T11:08:32;1.58;;;0.70;;
77160;SDS011;66135;0.000;0.000;2023-04-24T11:11:06;1.40;;;0.52;;
